LPE0021 SBSG-SBRF
Flight info
| Callsign | LPE0021 |
|---|---|
| Flight time | 0h 36m |
| Altitude | 14000 |
| Route | EDVEG |
| Aircraft | A20N/M-SDE2E3FGHIRWXY/LB1 |
Departure
| Time | 2026-05-08 11:26 |
|---|---|
| Airport | Rio Grande do Norte/São Gonçalo do Amarante–Governador Aluízio Alves International Airport (SBSG) |
Arrival
| Time | 2026-05-08 12:02 |
|---|---|
| Airport | Recife/Guararapes - Gilberto Freyre International Airport (SBRF) |
| Time | Latitude | Longitude | Altitude | Speed | Heading |
|---|---|---|---|---|---|
| 2026-05-08 10:40 | -5.76417 | -35.37391 | 292 ft | 0 kts | 10° |
| 2026-05-08 11:09 | -5.76419 | -35.37391 | 291 ft | 2 kts | 10° |
| 2026-05-08 11:09 | -5.76434 | -35.37394 | 291 ft | 2 kts | 10° |
| 2026-05-08 11:10 | -5.76449 | -35.37397 | 291 ft | 2 kts | 10° |
| 2026-05-08 11:10 | -5.76464 | -35.37399 | 291 ft | 2 kts | 10° |
| 2026-05-08 11:10 | -5.76479 | -35.37402 | 291 ft | 2 kts | 10° |
| 2026-05-08 11:10 | -5.76494 | -35.37404 | 291 ft | 2 kts | 10° |
| 2026-05-08 11:11 | -5.76509 | -35.37407 | 291 ft | 2 kts | 9° |
| 2026-05-08 11:11 | -5.76520 | -35.37414 | 291 ft | 2 kts | 69° |
| 2026-05-08 11:11 | -5.76521 | -35.37423 | 291 ft | 1 kts | 102° |
| 2026-05-08 11:11 | -5.76520 | -35.37429 | 291 ft | 0 kts | 100° |
| 2026-05-08 11:18 | -5.76520 | -35.37428 | 291 ft | 0 kts | 100° |
| 2026-05-08 11:18 | -5.76521 | -35.37408 | 291 ft | 5 kts | 87° |
| 2026-05-08 11:18 | -5.76516 | -35.37362 | 291 ft | 7 kts | 84° |
| 2026-05-08 11:18 | -5.76521 | -35.37309 | 291 ft | 8 kts | 99° |
| 2026-05-08 11:19 | -5.76539 | -35.37252 | 291 ft | 8 kts | 132° |
| 2026-05-08 11:19 | -5.76600 | -35.37248 | 291 ft | 9 kts | 190° |
| 2026-05-08 11:19 | -5.76670 | -35.37261 | 291 ft | 10 kts | 195° |
| 2026-05-08 11:19 | -5.76703 | -35.37316 | 291 ft | 10 kts | 278° |
| 2026-05-08 11:20 | -5.76690 | -35.37392 | 291 ft | 11 kts | 278° |
| 2026-05-08 11:20 | -5.76678 | -35.37474 | 291 ft | 12 kts | 279° |
| 2026-05-08 11:20 | -5.76663 | -35.37561 | 291 ft | 13 kts | 279° |
| 2026-05-08 11:20 | -5.76648 | -35.37653 | 291 ft | 13 kts | 278° |
| 2026-05-08 11:21 | -5.76633 | -35.37750 | 291 ft | 14 kts | 279° |
| 2026-05-08 11:21 | -5.76618 | -35.37848 | 291 ft | 14 kts | 278° |
| 2026-05-08 11:21 | -5.76613 | -35.37932 | 291 ft | 9 kts | 253° |
| 2026-05-08 11:21 | -5.76648 | -35.37962 | 291 ft | 4 kts | 197° |
| 2026-05-08 11:22 | -5.76653 | -35.37963 | 291 ft | 0 kts | 194° |
| 2026-05-08 11:23 | -5.76654 | -35.37963 | 291 ft | 0 kts | 194° |
| 2026-05-08 11:23 | -5.76661 | -35.37965 | 291 ft | 1 kts | 194° |
| 2026-05-08 11:23 | -5.76676 | -35.37968 | 291 ft | 2 kts | 192° |
| 2026-05-08 11:23 | -5.76700 | -35.37974 | 291 ft | 4 kts | 193° |
| 2026-05-08 11:24 | -5.76732 | -35.37981 | 291 ft | 5 kts | 191° |
| 2026-05-08 11:24 | -5.76769 | -35.37975 | 291 ft | 5 kts | 134° |
| 2026-05-08 11:24 | -5.76777 | -35.37937 | 291 ft | 0 kts | 99° |
| 2026-05-08 11:25 | -5.76780 | -35.37919 | 291 ft | 22 kts | 99° |
| 2026-05-08 11:25 | -5.76853 | -35.37471 | 292 ft | 105 kts | 99° |
| 2026-05-08 11:25 | -5.77010 | -35.36507 | 310 ft | 168 kts | 101° |
| 2026-05-08 11:26 | -5.77170 | -35.35345 | 963 ft | 172 kts | 99° |
| 2026-05-08 11:26 | -5.77370 | -35.34185 | 1680 ft | 173 kts | 106° |
| 2026-05-08 11:26 | -5.77613 | -35.32964 | 2226 ft | 188 kts | 92° |
| 2026-05-08 11:26 | -5.77187 | -35.31694 | 2833 ft | 204 kts | 50° |
| 2026-05-08 11:27 | -5.76004 | -35.30926 | 3664 ft | 211 kts | 18° |
| 2026-05-08 11:27 | -5.74525 | -35.30933 | 4406 ft | 223 kts | 342° |
| 2026-05-08 11:27 | -5.73277 | -35.31846 | 5160 ft | 233 kts | 304° |
| 2026-05-08 11:27 | -5.72573 | -35.33310 | 5949 ft | 237 kts | 294° |
| 2026-05-08 11:28 | -5.71925 | -35.34848 | 6711 ft | 241 kts | 295° |
| 2026-05-08 11:28 | -5.71255 | -35.36380 | 7472 ft | 243 kts | 296° |
| 2026-05-08 11:28 | -5.70562 | -35.37922 | 8204 ft | 245 kts | 296° |
| 2026-05-08 11:28 | -5.69856 | -35.39474 | 8916 ft | 247 kts | 297° |
| 2026-05-08 11:29 | -5.69139 | -35.41043 | 9580 ft | 251 kts | 297° |
| 2026-05-08 11:29 | -5.68380 | -35.42693 | 9995 ft | 267 kts | 297° |
| 2026-05-08 11:29 | -5.67592 | -35.44427 | 10353 ft | 285 kts | 293° |
| 2026-05-08 11:29 | -5.67107 | -35.46413 | 10680 ft | 305 kts | 274° |
| 2026-05-08 11:30 | -5.67305 | -35.48585 | 10996 ft | 323 kts | 253° |
| 2026-05-08 11:30 | -5.68283 | -35.50669 | 11296 ft | 339 kts | 232° |
| 2026-05-08 11:30 | -5.69995 | -35.52336 | 11582 ft | 351 kts | 211° |
| 2026-05-08 11:30 | -5.72290 | -35.53282 | 12063 ft | 355 kts | 187° |
| 2026-05-08 11:31 | -5.74716 | -35.53242 | 12735 ft | 351 kts | 164° |
| 2026-05-08 11:31 | -5.76961 | -35.52314 | 13404 ft | 350 kts | 150° |
| 2026-05-08 11:31 | -5.79115 | -35.51145 | 13815 ft | 353 kts | 150° |
| 2026-05-08 11:31 | -5.81283 | -35.49968 | 13968 ft | 355 kts | 150° |
| 2026-05-08 11:32 | -5.83482 | -35.48780 | 13968 ft | 355 kts | 150° |
| 2026-05-08 11:32 | -5.85661 | -35.47609 | 13971 ft | 355 kts | 150° |
| 2026-05-08 11:32 | -5.87837 | -35.46439 | 13972 ft | 355 kts | 150° |
| 2026-05-08 11:32 | -5.90049 | -35.45252 | 13972 ft | 356 kts | 150° |
| 2026-05-08 11:33 | -5.92237 | -35.44079 | 13973 ft | 356 kts | 150° |
| 2026-05-08 11:33 | -5.94414 | -35.42912 | 13974 ft | 356 kts | 150° |
| 2026-05-08 11:33 | -5.96601 | -35.41739 | 13974 ft | 356 kts | 150° |
| 2026-05-08 11:33 | -5.98788 | -35.40567 | 13974 ft | 356 kts | 150° |
| 2026-05-08 11:34 | -6.00995 | -35.39384 | 13974 ft | 356 kts | 150° |
| 2026-05-08 11:34 | -6.03188 | -35.38209 | 13975 ft | 356 kts | 150° |
| 2026-05-08 11:34 | -6.05403 | -35.37021 | 13976 ft | 356 kts | 150° |
| 2026-05-08 11:34 | -6.07596 | -35.35847 | 13979 ft | 356 kts | 150° |
| 2026-05-08 11:35 | -6.09794 | -35.34666 | 13978 ft | 356 kts | 150° |
| 2026-05-08 11:35 | -6.11965 | -35.33503 | 13974 ft | 355 kts | 150° |
| 2026-05-08 11:35 | -6.14178 | -35.32317 | 13975 ft | 355 kts | 150° |
| 2026-05-08 11:35 | -6.16374 | -35.31139 | 13969 ft | 355 kts | 150° |
| 2026-05-08 11:36 | -6.18557 | -35.29969 | 13973 ft | 355 kts | 150° |
| 2026-05-08 11:36 | -6.20754 | -35.28791 | 13976 ft | 355 kts | 150° |
| 2026-05-08 11:36 | -6.22950 | -35.27611 | 13976 ft | 356 kts | 150° |
| 2026-05-08 11:36 | -6.25144 | -35.26436 | 13979 ft | 355 kts | 150° |
| 2026-05-08 11:37 | -6.27331 | -35.25262 | 13977 ft | 356 kts | 150° |
| 2026-05-08 11:37 | -6.29502 | -35.24097 | 13980 ft | 356 kts | 150° |
| 2026-05-08 11:37 | -6.31713 | -35.22913 | 13980 ft | 355 kts | 150° |
| 2026-05-08 11:37 | -6.33909 | -35.21733 | 13970 ft | 356 kts | 150° |
| 2026-05-08 11:38 | -6.36075 | -35.20571 | 13970 ft | 356 kts | 150° |
| 2026-05-08 11:38 | -6.38262 | -35.19397 | 13976 ft | 356 kts | 150° |
| 2026-05-08 11:38 | -6.40476 | -35.18208 | 13985 ft | 355 kts | 150° |
| 2026-05-08 11:38 | -6.42658 | -35.17036 | 13980 ft | 355 kts | 150° |
| 2026-05-08 11:39 | -6.44834 | -35.15866 | 13984 ft | 355 kts | 150° |
| 2026-05-08 11:39 | -6.47020 | -35.14693 | 13980 ft | 355 kts | 150° |
| 2026-05-08 11:39 | -6.49228 | -35.13508 | 13984 ft | 355 kts | 150° |
| 2026-05-08 11:39 | -6.51415 | -35.12334 | 13978 ft | 355 kts | 150° |
| 2026-05-08 11:40 | -6.53587 | -35.11167 | 13975 ft | 355 kts | 149° |
| 2026-05-08 11:40 | -6.55778 | -35.09991 | 13975 ft | 355 kts | 150° |
| 2026-05-08 11:40 | -6.57960 | -35.08819 | 13976 ft | 355 kts | 150° |
| 2026-05-08 11:40 | -6.60151 | -35.07641 | 13975 ft | 356 kts | 150° |
| 2026-05-08 11:41 | -6.62354 | -35.06457 | 13983 ft | 356 kts | 150° |
| 2026-05-08 11:41 | -6.64520 | -35.05294 | 13990 ft | 355 kts | 149° |
| 2026-05-08 11:41 | -6.66731 | -35.04104 | 13990 ft | 356 kts | 150° |
| 2026-05-08 11:41 | -6.68925 | -35.02928 | 13984 ft | 356 kts | 151° |
| 2026-05-08 11:42 | -6.71257 | -35.02126 | 13965 ft | 360 kts | 171° |
| 2026-05-08 11:42 | -6.73773 | -35.02029 | 13804 ft | 361 kts | 179° |
| 2026-05-08 11:42 | -6.76281 | -35.02105 | 13568 ft | 360 kts | 180° |
| 2026-05-08 11:42 | -6.78795 | -35.02178 | 13328 ft | 359 kts | 179° |
| 2026-05-08 11:43 | -6.81316 | -35.02220 | 13091 ft | 357 kts | 178° |
| 2026-05-08 11:43 | -6.83810 | -35.02237 | 12849 ft | 356 kts | 178° |
| 2026-05-08 11:43 | -6.86273 | -35.02235 | 12622 ft | 355 kts | 177° |
| 2026-05-08 11:43 | -6.88743 | -35.02220 | 12378 ft | 354 kts | 176° |
| 2026-05-08 11:44 | -6.91223 | -35.02202 | 12139 ft | 352 kts | 176° |
| 2026-05-08 11:44 | -6.93689 | -35.02179 | 11904 ft | 351 kts | 176° |
| 2026-05-08 11:44 | -6.96118 | -35.02152 | 11667 ft | 350 kts | 176° |
| 2026-05-08 11:44 | -6.98590 | -35.02126 | 11420 ft | 349 kts | 176° |
| 2026-05-08 11:45 | -7.01024 | -35.02100 | 11180 ft | 347 kts | 176° |
| 2026-05-08 11:45 | -7.03419 | -35.02074 | 10944 ft | 346 kts | 176° |
| 2026-05-08 11:45 | -7.05849 | -35.02047 | 10716 ft | 344 kts | 176° |
| 2026-05-08 11:45 | -7.08203 | -35.02022 | 10416 ft | 337 kts | 176° |
| 2026-05-08 11:46 | -7.10559 | -35.01996 | 10099 ft | 330 kts | 176° |
| 2026-05-08 11:46 | -7.12846 | -35.01971 | 9851 ft | 322 kts | 175° |
| 2026-05-08 11:46 | -7.15049 | -35.01947 | 9726 ft | 309 kts | 175° |
| 2026-05-08 11:46 | -7.17159 | -35.01924 | 9603 ft | 298 kts | 175° |
| 2026-05-08 11:47 | -7.19233 | -35.01901 | 9484 ft | 296 kts | 175° |
| 2026-05-08 11:47 | -7.21303 | -35.01875 | 9366 ft | 296 kts | 175° |
| 2026-05-08 11:47 | -7.23362 | -35.01849 | 9248 ft | 295 kts | 175° |
| 2026-05-08 11:47 | -7.25440 | -35.01824 | 9128 ft | 295 kts | 175° |
| 2026-05-08 11:48 | -7.27474 | -35.01800 | 9013 ft | 294 kts | 175° |
| 2026-05-08 11:48 | -7.29524 | -35.01776 | 8894 ft | 294 kts | 175° |
| 2026-05-08 11:48 | -7.31579 | -35.01751 | 8779 ft | 293 kts | 175° |
| 2026-05-08 11:48 | -7.33620 | -35.01729 | 8664 ft | 292 kts | 175° |
| 2026-05-08 11:49 | -7.35661 | -35.01704 | 8548 ft | 291 kts | 175° |
| 2026-05-08 11:49 | -7.37724 | -35.01680 | 8430 ft | 291 kts | 175° |
| 2026-05-08 11:49 | -7.39753 | -35.01657 | 8310 ft | 290 kts | 175° |
| 2026-05-08 11:49 | -7.41785 | -35.01635 | 8193 ft | 289 kts | 175° |
| 2026-05-08 11:50 | -7.43789 | -35.01612 | 8073 ft | 289 kts | 175° |
| 2026-05-08 11:50 | -7.45797 | -35.01590 | 7949 ft | 288 kts | 175° |
| 2026-05-08 11:50 | -7.47813 | -35.01566 | 7839 ft | 288 kts | 175° |
| 2026-05-08 11:50 | -7.49837 | -35.01543 | 7718 ft | 287 kts | 175° |
| 2026-05-08 11:51 | -7.51839 | -35.01521 | 7585 ft | 286 kts | 175° |
| 2026-05-08 11:51 | -7.53831 | -35.01497 | 7430 ft | 286 kts | 175° |
| 2026-05-08 11:51 | -7.55824 | -35.01475 | 7246 ft | 285 kts | 175° |
| 2026-05-08 11:51 | -7.57818 | -35.01453 | 7016 ft | 284 kts | 175° |
| 2026-05-08 11:52 | -7.59797 | -35.01430 | 6726 ft | 283 kts | 175° |
| 2026-05-08 11:52 | -7.61774 | -35.01407 | 6424 ft | 281 kts | 175° |
| 2026-05-08 11:52 | -7.63735 | -35.01385 | 6122 ft | 279 kts | 175° |
| 2026-05-08 11:52 | -7.65684 | -35.01363 | 5806 ft | 277 kts | 176° |
| 2026-05-08 11:53 | -7.67622 | -35.01341 | 5486 ft | 276 kts | 175° |
| 2026-05-08 11:53 | -7.69541 | -35.01320 | 5168 ft | 274 kts | 175° |
| 2026-05-08 11:53 | -7.71458 | -35.01297 | 4845 ft | 272 kts | 176° |
| 2026-05-08 11:53 | -7.73349 | -35.01274 | 4517 ft | 271 kts | 176° |
| 2026-05-08 11:54 | -7.75229 | -35.01253 | 4184 ft | 269 kts | 176° |
| 2026-05-08 11:54 | -7.77108 | -35.01232 | 3859 ft | 267 kts | 176° |
| 2026-05-08 11:54 | -7.78965 | -35.01212 | 3534 ft | 266 kts | 176° |
| 2026-05-08 11:54 | -7.80822 | -35.01190 | 3276 ft | 262 kts | 176° |
| 2026-05-08 11:55 | -7.82619 | -35.01170 | 3243 ft | 253 kts | 176° |
| 2026-05-08 11:55 | -7.84347 | -35.01154 | 3211 ft | 239 kts | 176° |
| 2026-05-08 11:55 | -7.85936 | -35.01008 | 3169 ft | 223 kts | 166° |
| 2026-05-08 11:55 | -7.87412 | -35.00646 | 3096 ft | 211 kts | 160° |
| 2026-05-08 11:56 | -7.88791 | -35.00212 | 3001 ft | 200 kts | 159° |
| 2026-05-08 11:56 | -7.90102 | -34.99775 | 2998 ft | 198 kts | 159° |
| 2026-05-08 11:56 | -7.91424 | -34.99330 | 2996 ft | 198 kts | 159° |
| 2026-05-08 11:56 | -7.92725 | -34.98896 | 2997 ft | 197 kts | 159° |
| 2026-05-08 11:57 | -7.94032 | -34.98460 | 2995 ft | 197 kts | 159° |
| 2026-05-08 11:57 | -7.95281 | -34.98049 | 3097 ft | 178 kts | 159° |
| 2026-05-08 11:57 | -7.96426 | -34.97672 | 2967 ft | 166 kts | 159° |
| 2026-05-08 11:57 | -7.97501 | -34.97318 | 2768 ft | 160 kts | 159° |
| 2026-05-08 11:58 | -7.98545 | -34.96972 | 2555 ft | 152 kts | 159° |
| 2026-05-08 11:58 | -7.99519 | -34.96650 | 2339 ft | 141 kts | 159° |
| 2026-05-08 11:58 | -8.00431 | -34.96349 | 2191 ft | 138 kts | 159° |
| 2026-05-08 11:59 | -8.02280 | -34.95737 | 1851 ft | 139 kts | 159° |
| 2026-05-08 11:59 | -8.03198 | -34.95434 | 1676 ft | 138 kts | 160° |
| 2026-05-08 11:59 | -8.04112 | -34.95132 | 1496 ft | 138 kts | 160° |
| 2026-05-08 11:59 | -8.05029 | -34.94829 | 1316 ft | 138 kts | 161° |
| 2026-05-08 12:00 | -8.05944 | -34.94526 | 1130 ft | 138 kts | 161° |
| 2026-05-08 12:00 | -8.06868 | -34.94223 | 955 ft | 138 kts | 162° |
| 2026-05-08 12:00 | -8.07769 | -34.93925 | 811 ft | 138 kts | 162° |
| 2026-05-08 12:00 | -8.08686 | -34.93621 | 649 ft | 138 kts | 161° |
| 2026-05-08 12:01 | -8.09606 | -34.93315 | 430 ft | 138 kts | 163° |
| 2026-05-08 12:01 | -8.10525 | -34.93013 | 267 ft | 138 kts | 162° |
| 2026-05-08 12:01 | -8.11431 | -34.92712 | 88 ft | 132 kts | 164° |
| 2026-05-08 12:01 | -8.12194 | -34.92464 | 47 ft | 78 kts | 162° |
| 2026-05-08 12:02 | -8.12437 | -34.92385 | 47 ft | 0 kts | 163° |
| 2026-05-08 12:02 | -8.12487 | -34.92369 | 47 ft | 27 kts | 162° |
| 2026-05-08 12:02 | -8.12703 | -34.92298 | 47 ft | 32 kts | 161° |
| 2026-05-08 12:02 | -8.12908 | -34.92229 | 46 ft | 30 kts | 163° |
| 2026-05-08 12:03 | -8.13102 | -34.92168 | 46 ft | 28 kts | 161° |
| 2026-05-08 12:03 | -8.13231 | -34.92117 | 46 ft | 17 kts | 139° |
| 2026-05-08 12:03 | -8.13286 | -34.92025 | 46 ft | 1 kts | 128° |
| 2026-05-08 12:04 | -8.13287 | -34.92024 | 45 ft | 0 kts | 128° |
| 2026-05-08 12:05 | -8.13293 | -34.92016 | 45 ft | 2 kts | 123° |
| 2026-05-08 12:05 | -8.13298 | -34.91999 | 45 ft | 3 kts | 88° |
| 2026-05-08 12:05 | -8.13286 | -34.91980 | 46 ft | 4 kts | 30° |
| 2026-05-08 12:05 | -8.13257 | -34.91970 | 45 ft | 4 kts | 40° |
| 2026-05-08 12:06 | -8.13238 | -34.91935 | 45 ft | 6 kts | 71° |
| 2026-05-08 12:06 | -8.13226 | -34.91898 | 47 ft | 0 kts | 72° |
| 2026-05-08 12:06 | -8.13226 | -34.91897 | 47 ft | 0 kts | 73° |